createdAt,value
2022-09-01T00:01:39.427Z,1.80
2022-09-01T00:05:46.352Z,1.63
2022-09-01T00:09:49.978Z,1.88
2022-09-01T00:13:54.816Z,1.75
2022-09-01T00:17:58.178Z,1.80
2022-09-01T00:22:03.659Z,1.77
2022-09-01T00:26:07.572Z,1.92
2022-09-01T00:30:11.878Z,1.60
2022-09-01T00:34:15.213Z,1.70
2022-09-01T00:38:20.194Z,1.60
2022-09-01T00:42:24.508Z,1.90
2022-09-01T00:46:30.244Z,1.65
2022-09-01T00:50:34.199Z,1.60
2022-09-01T00:54:42.886Z,1.58
2022-09-01T00:58:46.633Z,2.00
2022-09-01T01:02:56.483Z,1.85
2022-09-01T01:07:03.171Z,1.70
2022-09-01T01:11:11.640Z,1.60
2022-09-01T01:15:15.302Z,1.60
2022-09-01T01:19:39.089Z,1.33
2022-09-01T01:23:51.095Z,1.58
2022-09-01T01:28:06.385Z,1.60
2022-09-01T01:32:13.119Z,1.83
2022-09-01T01:36:21.626Z,1.35
2022-09-01T01:40:26.139Z,1.65
2022-09-01T01:44:31.108Z,1.65
2022-09-01T01:48:39.795Z,1.58
2022-09-01T01:52:45.468Z,1.52
2022-09-01T01:56:49.830Z,1.38
2022-09-01T02:00:56.556Z,1.45
2022-09-01T02:05:00.537Z,1.60
2022-09-01T02:09:04.503Z,1.50
2022-09-01T02:13:08.258Z,1.40
2022-09-01T02:17:13.043Z,1.20
2022-09-01T02:21:19.809Z,1.40
2022-09-01T02:25:23.520Z,1.40
2022-09-01T02:29:28.896Z,1.27
2022-09-01T02:33:34.177Z,1.40
2022-09-01T02:37:41.387Z,1.40
2022-09-01T02:41:46.225Z,1.30
2022-09-01T02:45:54.458Z,1.52
2022-09-01T02:50:01.120Z,1.35
2022-09-01T02:54:06.433Z,1.40
2022-09-01T02:58:16.384Z,1.27
2022-09-01T03:02:19.701Z,1.30
2022-09-01T03:06:25.165Z,1.50
2022-09-01T03:10:32.791Z,1.40
2022-09-01T03:14:36.344Z,1.40
2022-09-01T03:18:40.506Z,1.40
2022-09-01T03:22:45.581Z,1.25
2022-09-01T03:26:50.397Z,1.48
2022-09-01T03:30:56.881Z,1.65
2022-09-01T03:35:00.392Z,1.30
2022-09-01T03:39:05.254Z,1.40
2022-09-01T03:43:10.940Z,1.77
2022-09-01T03:47:15.321Z,1.33
2022-09-01T03:51:20.717Z,1.40
2022-09-01T03:55:29.973Z,1.40
2022-09-01T03:59:34.119Z,1.50
2022-09-01T04:03:40.437Z,1.77
2022-09-01T04:07:48.686Z,1.48
2022-09-01T04:11:53.159Z,1.50
2022-09-01T04:15:58.311Z,1.45
2022-09-01T04:20:08.815Z,2.10
2022-09-01T04:24:14.844Z,1.33
2022-09-01T04:28:24.794Z,1.40
2022-09-01T04:32:28.561Z,1.55
2022-09-01T04:36:34.865Z,1.30
2022-09-01T04:40:40.318Z,1.50
2022-09-01T04:44:45.478Z,1.27
2022-09-01T04:48:49.376Z,1.20
2022-09-01T04:52:56.037Z,1.40
2022-09-01T04:57:06.898Z,1.48
2022-09-01T05:01:20.208Z,1.50
2022-09-01T05:05:24.287Z,1.38
2022-09-01T05:09:28.881Z,1.45
2022-09-01T05:13:40.374Z,1.23
2022-09-01T05:17:45.297Z,1.48
2022-09-01T05:21:49.867Z,1.60
2022-09-01T05:25:54.848Z,1.33
2022-09-01T05:30:00.823Z,1.10
2022-09-01T05:34:08.035Z,1.40
2022-09-01T05:38:15.872Z,1.20
2022-09-01T05:42:19.401Z,1.52
2022-09-01T05:46:25.721Z,1.30
2022-09-01T05:50:31.543Z,1.25
2022-09-01T05:54:35.765Z,1.10
2022-09-01T06:03:04.763Z,1.42
2022-09-01T06:07:16.270Z,1.52
2022-09-01T06:11:33.049Z,1.30
2022-09-01T06:15:39.105Z,1.00
2022-09-01T06:19:42.752Z,1.33
2022-09-01T06:23:51.168Z,1.10
2022-09-01T06:27:54.296Z,1.08
2022-09-01T06:31:59.894Z,1.25
2022-09-01T06:36:04.284Z,1.00
2022-09-01T06:40:16.917Z,1.40
2022-09-01T06:44:22.818Z,1.35
2022-09-01T06:48:35.955Z,1.20
2022-09-01T07:01:32.388Z,1.23
2022-09-01T07:10:23.593Z,1.10
2022-09-01T07:19:04.059Z,1.00
2022-09-01T07:23:12.045Z,1.10
2022-09-01T07:27:16.258Z,0.80
2022-09-01T07:44:44.166Z,1.00
2022-09-01T07:53:34.387Z,0.73
2022-09-01T07:57:38.059Z,0.90
2022-09-01T08:01:43.234Z,0.88
2022-09-01T08:05:51.309Z,0.82
2022-09-01T08:09:56.114Z,0.90
2022-09-01T08:14:05.174Z,0.80
2022-09-01T08:18:09.720Z,0.75
2022-09-01T08:22:14.665Z,0.73
2022-09-01T08:26:28.820Z,0.70
2022-09-01T08:30:33.594Z,1.02
2022-09-01T08:34:37.659Z,0.80
2022-09-01T08:38:43.255Z,0.80
2022-09-01T08:42:56.763Z,0.75
2022-09-01T08:47:04.885Z,0.98
2022-09-01T08:51:20.736Z,0.80
2022-09-01T08:55:42.939Z,0.85
2022-09-01T08:59:46.903Z,0.65
2022-09-01T09:04:16.959Z,0.90
2022-09-01T09:08:41.240Z,0.80
2022-09-01T09:12:56.716Z,0.82
2022-09-01T09:17:00.748Z,0.80
2022-09-01T09:21:13.075Z,0.80
2022-09-01T09:25:19.622Z,0.80
2022-09-01T09:29:24.655Z,0.70
2022-09-01T09:33:51.658Z,0.90
2022-09-01T09:37:56.235Z,0.75
2022-09-01T09:42:09.512Z,0.80
2022-09-01T09:46:26.699Z,0.90
2022-09-01T09:50:32.455Z,0.80
2022-09-01T09:54:36.792Z,0.80
2022-09-01T09:58:42.895Z,1.25
2022-09-01T10:02:53.313Z,0.77
2022-09-01T10:06:56.388Z,0.80
2022-09-01T10:10:59.692Z,0.80
2022-09-01T10:15:11.666Z,0.60
2022-09-01T10:19:17.102Z,0.77
2022-09-01T10:23:20.626Z,0.70
2022-09-01T10:27:27.915Z,0.80
2022-09-01T10:31:36.023Z,0.82
2022-09-01T10:35:45.762Z,0.88
2022-09-01T10:40:12.181Z,0.90
2022-09-01T10:44:21.215Z,0.95
2022-09-01T10:48:32.054Z,0.80
2022-09-01T10:53:04.977Z,0.60
2022-09-01T10:57:12.767Z,0.80
2022-09-01T11:01:34.998Z,0.80
2022-09-01T11:06:11.989Z,0.70
2022-09-01T11:10:34.986Z,0.90
2022-09-01T11:14:50.198Z,0.80
2022-09-01T11:18:54.031Z,0.70
2022-09-01T11:23:03.826Z,0.60
2022-09-01T11:27:09.988Z,0.93
2022-09-01T11:31:26.950Z,0.63
2022-09-01T11:35:31.179Z,0.80
2022-09-01T11:39:40.673Z,0.68
2022-09-01T11:43:45.174Z,0.80
2022-09-01T11:47:50.872Z,0.90
2022-09-01T11:51:54.555Z,0.90
2022-09-01T11:56:17.508Z,0.70
2022-09-01T12:00:28.732Z,0.70
2022-09-01T12:04:36.322Z,0.80
2022-09-01T12:08:41.637Z,0.70
2022-09-01T12:12:44.831Z,0.82
2022-09-01T12:16:58.629Z,0.75
2022-09-01T12:21:03.980Z,0.90
2022-09-01T12:25:34.693Z,0.80
2022-09-01T12:29:39.235Z,0.70
2022-09-01T12:33:45.844Z,0.73
2022-09-01T12:37:50.553Z,0.90
2022-09-01T12:42:06.564Z,0.77
2022-09-01T12:46:17.341Z,0.80
2022-09-01T12:50:43.925Z,0.80
2022-09-01T12:54:47.669Z,0.80
2022-09-01T12:58:53.982Z,0.70
2022-09-01T13:03:14.849Z,0.70
2022-09-01T13:07:19.358Z,0.80
2022-09-01T13:11:22.680Z,1.08
2022-09-01T13:15:26.921Z,0.63
2022-09-01T13:19:30.592Z,0.75
2022-09-01T13:23:35.464Z,0.80
2022-09-01T13:27:38.703Z,0.75
2022-09-01T13:32:16.633Z,0.80
2022-09-01T13:40:33.065Z,0.80
2022-09-01T13:44:36.957Z,0.80
2022-09-01T13:53:03.878Z,0.80
2022-09-01T13:57:08.800Z,0.70
2022-09-01T14:01:13.757Z,0.52
2022-09-01T14:05:17.808Z,0.90
2022-09-01T14:09:20.967Z,0.70
2022-09-01T14:13:26.605Z,0.70
2022-09-01T14:17:29.851Z,0.88
2022-09-01T14:21:33.419Z,0.70
2022-09-01T14:25:37.743Z,0.80
2022-09-01T14:33:45.374Z,0.60
2022-09-01T14:37:48.910Z,0.70
2022-09-01T14:41:52.525Z,0.80
2022-09-01T14:46:07.265Z,0.50
2022-09-01T14:50:10.939Z,0.63
2022-09-01T14:54:14.083Z,0.60
2022-09-01T14:58:17.213Z,0.60
2022-09-01T15:02:22.053Z,0.70
2022-09-01T15:06:25.714Z,0.90
2022-09-01T15:10:29.617Z,0.65
2022-09-01T15:14:33.423Z,0.60
2022-09-01T15:18:38.163Z,0.40
2022-09-01T15:22:42.019Z,0.52
2022-09-01T15:26:46.794Z,0.60
2022-09-01T15:30:51.122Z,0.60
2022-09-01T15:34:59.009Z,0.70
2022-09-01T15:39:02.311Z,0.77
2022-09-01T15:43:06.863Z,0.70
2022-09-01T15:47:09.953Z,0.50
2022-09-01T15:51:34.874Z,0.70
2022-09-01T15:55:43.956Z,0.70
2022-09-01T15:59:46.999Z,0.60
2022-09-01T16:03:50.290Z,0.60
2022-09-01T16:12:04.287Z,0.60
2022-09-01T16:16:22.141Z,0.70
2022-09-01T16:20:27.492Z,0.60
2022-09-01T16:24:34.325Z,0.60
2022-09-01T16:28:39.054Z,0.60
2022-09-01T16:32:45.943Z,0.52
2022-09-01T16:36:57.781Z,0.80
2022-09-01T16:41:09.354Z,0.80
2022-09-01T16:45:21.415Z,0.70
2022-09-01T16:49:34.174Z,0.85
2022-09-01T16:53:53.430Z,0.70
2022-09-01T16:58:04.872Z,0.60
2022-09-01T17:02:22.299Z,0.77
2022-09-01T17:06:31.853Z,0.60
2022-09-01T17:10:42.443Z,0.80
2022-09-01T17:14:55.239Z,0.70
2022-09-01T17:19:00.349Z,0.70
2022-09-01T17:23:08.867Z,0.70
2022-09-01T17:27:19.554Z,0.82
2022-09-01T17:31:35.033Z,0.77
2022-09-01T17:35:43.563Z,0.80
2022-09-01T17:39:55.415Z,0.70
2022-09-01T17:44:12.737Z,0.80
2022-09-01T17:48:20.769Z,0.98
2022-09-01T17:52:40.003Z,0.80
2022-09-01T17:56:53.519Z,0.60
2022-09-01T18:01:02.426Z,0.82
2022-09-01T18:05:12.659Z,0.90
2022-09-01T18:09:19.021Z,0.80
2022-09-01T18:13:51.428Z,0.88
2022-09-01T18:17:55.339Z,0.70
2022-09-01T18:22:04.340Z,0.90
2022-09-01T18:26:16.136Z,0.75
2022-09-01T18:30:42.644Z,0.65
2022-09-01T18:35:02.204Z,0.70
2022-09-01T18:39:13.115Z,0.60
2022-09-01T18:43:30.192Z,0.80
2022-09-01T18:47:35.403Z,0.60
2022-09-01T18:52:00.893Z,0.90
2022-09-01T18:56:15.053Z,0.82
2022-09-01T19:00:20.336Z,0.75
2022-09-01T19:04:29.580Z,0.90
2022-09-01T19:08:45.495Z,1.00
2022-09-01T19:12:57.340Z,1.00
2022-09-01T19:17:16.432Z,1.10
2022-09-01T19:21:22.818Z,1.17
2022-09-01T19:25:36.863Z,0.90
2022-09-01T19:29:47.934Z,1.00
2022-09-01T19:33:56.116Z,1.10
2022-09-01T19:37:59.215Z,1.10
2022-09-01T19:42:07.751Z,1.00
2022-09-01T19:46:25.833Z,0.95
2022-09-01T19:50:35.924Z,0.80
2022-09-01T19:54:51.968Z,0.70
2022-09-01T19:59:02.324Z,0.80
2022-09-01T20:03:12.590Z,0.80
2022-09-01T20:07:28.946Z,0.70
2022-09-01T20:11:44.728Z,0.82
2022-09-01T20:15:55.394Z,0.82
2022-09-01T20:20:07.731Z,0.70
2022-09-01T20:24:19.750Z,0.65
2022-09-01T20:28:29.620Z,0.70
2022-09-01T20:32:41.087Z,0.70
2022-09-01T20:36:51.633Z,0.70
2022-09-01T20:40:57.964Z,0.70
2022-09-01T20:45:06.616Z,0.88
2022-09-01T20:49:10.577Z,0.70
2022-09-01T20:53:27.663Z,0.80
2022-09-01T20:57:41.576Z,0.73
2022-09-01T21:01:50.206Z,0.90
2022-09-01T21:05:59.669Z,0.80
2022-09-01T21:10:11.174Z,0.65
2022-09-01T21:14:40.056Z,0.80
2022-09-01T21:18:53.988Z,0.85
2022-09-01T21:22:57.757Z,0.70
2022-09-01T21:27:07.596Z,0.73
2022-09-01T21:31:10.781Z,0.80
2022-09-01T21:35:16.787Z,0.70
2022-09-01T21:39:19.957Z,0.80
2022-09-01T21:43:29.462Z,0.70
2022-09-01T21:47:33.845Z,1.13
2022-09-01T21:51:36.968Z,0.75
2022-09-01T21:55:41.099Z,0.70
2022-09-01T21:59:45.590Z,0.57
2022-09-01T22:03:48.846Z,0.80
2022-09-01T22:07:51.920Z,1.15
2022-09-01T22:11:54.943Z,0.85
2022-09-01T22:15:59.612Z,0.60
2022-09-01T22:20:03.337Z,0.80
2022-09-01T22:24:07.422Z,0.60
2022-09-01T22:28:11.475Z,0.60
2022-09-01T22:32:15.914Z,0.63
2022-09-01T22:36:24.772Z,0.70
2022-09-01T22:40:27.983Z,0.70
2022-09-01T22:44:31.603Z,0.70
2022-09-01T22:48:36.500Z,0.70
2022-09-01T22:52:40.172Z,0.50
2022-09-01T22:56:44.095Z,0.50
2022-09-01T23:00:50.796Z,0.73
2022-09-01T23:04:55.397Z,0.55
2022-09-01T23:09:00.809Z,0.73
2022-09-01T23:13:03.927Z,0.60
2022-09-01T23:17:06.996Z,0.70
2022-09-01T23:21:14.122Z,0.73
2022-09-01T23:25:17.769Z,0.80
2022-09-01T23:29:21.328Z,0.60
2022-09-01T23:33:25.834Z,0.80
2022-09-01T23:37:30.562Z,0.70
2022-09-01T23:41:36.335Z,0.80
2022-09-01T23:45:41.034Z,0.80
2022-09-01T23:49:44.149Z,0.70
2022-09-01T23:53:49.558Z,0.52
2022-09-01T23:57:52.630Z,0.80
